Time;durP1;ratioP1;P1;durP2;ratioP2;P2;SDS_P1;SDS_P2;PMS_P1;PMS_P2;Temp;Humidity;BMP_temperature;BMP_pressure;BME280_temperature;BME280_humidity;BME280_pressure;Samples;Min_cycle;Max_cycle;Signal;HPM_P1;HPM_P2
2023/06/03 00:02:01;;;;;;;6.80;1.83;;;12.70;99.90;;;;;;5022024;28;20090;-58
2023/06/03 00:04:29;;;;;;;6.13;2.05;;;12.70;99.90;;;;;;5013615;28;20037;-57
2023/06/03 00:06:59;;;;;;;6.28;2.28;;;12.70;99.90;;;;;;5022373;28;20048;-58
2023/06/03 00:09:25;;;;;;;4.30;1.77;;;12.70;99.90;;;;;;5028146;28;20049;-57
2023/06/03 00:11:51;;;;;;;4.03;2.10;;;12.70;99.90;;;;;;5021626;28;20120;-58
2023/06/03 00:14:17;;;;;;;4.30;2.47;;;12.60;99.90;;;;;;5023034;28;20101;-58
2023/06/03 00:16:45;;;;;;;6.03;2.35;;;12.50;99.90;;;;;;5026442;28;20428;-57
2023/06/03 00:19:14;;;;;;;4.03;1.73;;;12.50;99.90;;;;;;5024981;28;20561;-58
2023/06/03 00:21:49;;;;;;;3.67;1.90;;;12.50;99.90;;;;;;5026470;28;20045;-57
2023/06/03 00:24:17;;;;;;;5.55;1.90;;;12.50;99.90;;;;;;5024683;28;20077;-58
2023/06/03 00:26:42;;;;;;;7.43;2.10;;;12.40;99.90;;;;;;5040277;28;20450;-58
2023/06/03 00:29:09;;;;;;;5.00;2.13;;;12.40;99.90;;;;;;5018920;28;20041;-57
2023/06/03 00:31:35;;;;;;;6.45;2.40;;;12.40;99.90;;;;;;5025264;28;20040;-57
2023/06/03 00:34:01;;;;;;;3.88;1.60;;;12.30;99.90;;;;;;5005395;28;20121;-57
2023/06/03 00:36:26;;;;;;;4.45;2.22;;;12.20;99.90;;;;;;5009083;28;20051;-58
2023/06/03 00:38:52;;;;;;;6.38;2.28;;;12.20;99.90;;;;;;5009515;28;20147;-57
2023/06/03 00:41:19;;;;;;;5.18;2.20;;;12.20;99.90;;;;;;5012145;28;20062;-58
2023/06/03 00:43:45;;;;;;;4.80;1.83;;;12.20;99.90;;;;;;5048134;28;20037;-57
2023/06/03 00:46:11;;;;;;;3.97;2.05;;;12.20;99.90;;;;;;5032495;28;20257;-58
2023/06/03 00:48:40;;;;;;;4.07;1.95;;;12.20;99.90;;;;;;5026882;28;20096;-57
2023/06/03 00:51:09;;;;;;;5.00;2.15;;;12.10;99.90;;;;;;5032526;28;20052;-57
2023/06/03 00:53:35;;;;;;;3.92;2.10;;;12.10;99.90;;;;;;5045464;28;20080;-57
2023/06/03 00:56:01;;;;;;;3.70;2.20;;;12.00;99.90;;;;;;5032364;28;20044;-58
2023/06/03 00:58:28;;;;;;;3.38;2.00;;;12.00;99.90;;;;;;5033183;28;20037;-56
2023/06/03 01:00:53;;;;;;;3.63;1.85;;;11.90;99.90;;;;;;5027350;28;20117;-57
2023/06/03 01:03:20;;;;;;;4.32;1.85;;;11.90;99.90;;;;;;5027642;28;20563;-57
2023/06/03 01:05:54;;;;;;;5.57;2.33;;;11.90;99.90;;;;;;5045101;28;20080;-58
2023/06/03 01:08:53;;;;;;;3.80;2.10;;;11.80;99.90;;;;;;5025483;28;20515;-57
2023/06/03 01:12:06;;;;;;;4.65;2.05;;;11.80;99.90;;;;;;5024685;28;20102;-57
2023/06/03 01:14:42;;;;;;;6.25;2.10;;;11.70;99.90;;;;;;4999717;28;20060;-56
2023/06/03 01:17:12;;;;;;;3.03;1.63;;;11.70;99.90;;;;;;5027718;28;20088;-57
2023/06/03 01:19:49;;;;;;;6.68;2.08;;;11.70;99.90;;;;;;5014778;28;20414;-57
2023/06/03 01:22:20;;;;;;;6.70;2.03;;;11.70;99.90;;;;;;5028820;28;20052;-57
2023/06/03 01:24:50;;;;;;;2.88;1.65;;;11.60;99.90;;;;;;5008268;28;20077;-57
2023/06/03 01:27:20;;;;;;;5.40;2.03;;;11.60;99.90;;;;;;5012293;28;20057;-54
2023/06/03 01:29:47;;;;;;;5.50;1.90;;;11.60;99.90;;;;;;5013838;28;20052;-57
2023/06/03 01:35:49;;;;;;;3.67;1.60;;;11.60;99.90;;;;;;5014407;28;20420;-57
2023/06/03 01:38:16;;;;;;;3.95;1.65;;;11.60;99.90;;;;;;5029652;28;20052;-57
2023/06/03 01:40:42;;;;;;;3.47;1.70;;;11.70;99.90;;;;;;5036885;28;20541;-57
2023/06/03 01:43:08;;;;;;;2.80;1.48;;;11.70;99.90;;;;;;5012056;28;20040;-57
2023/06/03 01:45:34;;;;;;;3.47;1.50;;;11.70;99.90;;;;;;5011589;28;20044;-56
2023/06/03 01:48:00;;;;;;;3.47;1.17;;;11.80;99.90;;;;;;5022067;28;20399;-58
2023/06/03 01:50:25;;;;;;;2.95;1.33;;;11.70;99.90;;;;;;5009495;28;20523;-57
2023/06/03 01:52:51;;;;;;;3.55;1.50;;;11.80;99.90;;;;;;5019904;28;20094;-57
2023/06/03 01:55:17;;;;;;;2.42;1.35;;;11.80;99.90;;;;;;5014481;28;20128;-55
2023/06/03 01:57:49;;;;;;;2.50;1.50;;;11.70;99.90;;;;;;5019471;28;20076;-57
2023/06/03 02:00:16;;;;;;;3.05;1.50;;;11.70;99.90;;;;;;5040705;28;20090;-57
2023/06/03 02:02:43;;;;;;;1.92;1.30;;;11.70;99.90;;;;;;5029586;28;20037;-57
2023/06/03 02:05:09;;;;;;;3.92;1.52;;;11.70;99.90;;;;;;5021960;28;20044;-57
2023/06/03 02:07:35;;;;;;;3.90;1.85;;;11.70;99.90;;;;;;5049146;28;20049;-56
2023/06/03 02:10:01;;;;;;;2.67;1.42;;;11.70;99.90;;;;;;4991678;28;20045;-57
2023/06/03 02:12:27;;;;;;;5.63;1.42;;;11.70;99.90;;;;;;5003413;28;20045;-57
2023/06/03 02:14:56;;;;;;;5.70;1.80;;;11.70;99.90;;;;;;5041912;28;20119;-57
2023/06/03 02:17:29;;;;;;;5.25;1.50;;;11.70;99.90;;;;;;5025070;28;20040;-58
2023/06/03 02:19:56;;;;;;;2.38;1.40;;;11.60;99.90;;;;;;5026041;28;20056;-57
2023/06/03 02:22:23;;;;;;;4.53;1.52;;;11.60;99.90;;;;;;5031145;28;20408;-56
2023/06/03 02:24:49;;;;;;;3.00;1.67;;;11.60;99.90;;;;;;5016192;28;20377;-57
2023/06/03 02:27:24;;;;;;;3.25;1.30;;;11.50;99.90;;;;;;5023757;28;20103;-57
2023/06/03 02:29:51;;;;;;;3.05;1.50;;;11.50;99.90;;;;;;5025863;28;20527;-57
2023/06/03 02:32:20;;;;;;;4.40;1.42;;;11.50;99.90;;;;;;5043599;28;20069;-57
2023/06/03 02:34:50;;;;;;;1.77;1.30;;;11.50;99.90;;;;;;5031296;28;20112;-54
2023/06/03 02:37:19;;;;;;;3.10;1.40;;;11.40;99.90;;;;;;5044115;28;20055;-58
2023/06/03 02:39:45;;;;;;;3.60;1.38;;;11.40;99.90;;;;;;5011012;28;20084;-57
2023/06/03 02:45:52;;;;;;;5.45;1.48;;;11.20;99.90;;;;;;5048393;28;20055;-57
2023/06/03 02:48:17;;;;;;;3.20;1.63;;;11.20;99.90;;;;;;4993268;28;20488;-57
2023/06/03 02:50:43;;;;;;;3.20;1.60;;;11.10;99.90;;;;;;5026804;28;20067;-58
2023/06/03 02:53:11;;;;;;;2.47;1.63;;;11.10;99.90;;;;;;5027663;28;20112;-56
2023/06/03 02:55:37;;;;;;;5.47;1.88;;;11.10;99.90;;;;;;5029516;28;20104;-57
2023/06/03 02:58:02;;;;;;;3.47;1.38;;;11.10;99.90;;;;;;5014056;28;20162;-56
2023/06/03 03:00:30;;;;;;;7.00;1.63;;;11.10;99.90;;;;;;5030988;28;20041;-57
2023/06/03 03:02:56;;;;;;;2.72;1.13;;;11.00;99.90;;;;;;5013108;28;20037;-57
2023/06/03 03:05:23;;;;;;;3.28;1.45;;;11.00;99.90;;;;;;5029600;28;20044;-57
2023/06/03 03:07:54;;;;;;;2.83;1.30;;;11.00;99.90;;;;;;4995089;28;20041;-57
2023/06/03 03:10:19;;;;;;;6.15;1.92;;;10.90;99.90;;;;;;5030468;28;20056;-58
2023/06/03 03:12:45;;;;;;;2.50;1.48;;;10.90;99.90;;;;;;5013360;28;20041;-56
2023/06/03 03:15:11;;;;;;;2.70;1.30;;;10.90;99.90;;;;;;5025109;28;20040;-56
2023/06/03 03:17:37;;;;;;;3.25;1.48;;;10.90;99.90;;;;;;5008785;28;20396;-56
2023/06/03 03:20:03;;;;;;;3.00;1.48;;;10.90;99.90;;;;;;5026824;28;20041;-57
2023/06/03 03:22:32;;;;;;;2.92;1.60;;;10.90;99.90;;;;;;5028279;28;20041;-58
2023/06/03 03:24:58;;;;;;;3.17;1.30;;;10.90;99.90;;;;;;5028927;28;20083;-58
2023/06/03 03:27:23;;;;;;;4.57;1.60;;;10.90;99.90;;;;;;4996952;28;20072;-58
2023/06/03 03:29:51;;;;;;;5.07;1.88;;;10.90;99.90;;;;;;5009703;28;20128;-58
2023/06/03 03:32:19;;;;;;;4.22;1.60;;;10.80;99.90;;;;;;5009634;28;20049;-57
2023/06/03 03:35:08;;;;;;;3.40;1.75;;;10.80;99.90;;;;;;5022798;28;20049;-58
2023/06/03 03:37:33;;;;;;;2.60;1.38;;;10.80;99.90;;;;;;5016196;28;20672;-58
2023/06/03 03:39:59;;;;;;;3.17;1.80;;;10.80;99.90;;;;;;5010163;28;20036;-57
2023/06/03 03:42:25;;;;;;;3.42;1.50;;;10.70;99.90;;;;;;5027842;28;20036;-58
2023/06/03 03:44:51;;;;;;;4.75;1.55;;;10.80;99.90;;;;;;5013420;28;20686;-57
2023/06/03 03:47:22;;;;;;;3.10;1.60;;;10.80;99.90;;;;;;5017738;28;20079;-57
2023/06/03 03:49:47;;;;;;;2.13;1.20;;;10.80;99.90;;;;;;5047339;28;20257;-57
2023/06/03 03:52:19;;;;;;;4.50;1.50;;;10.80;99.90;;;;;;5006010;28;20407;-57
2023/06/03 03:54:44;;;;;;;3.88;1.33;;;10.90;99.90;;;;;;5025593;28;20045;-57
2023/06/03 03:57:12;;;;;;;3.40;1.58;;;10.90;99.90;;;;;;5028121;28;20033;-56
2023/06/03 03:59:38;;;;;;;2.40;1.30;;;10.90;99.90;;;;;;5028930;28;20041;-57
2023/06/03 04:02:04;;;;;;;2.88;1.30;;;10.90;99.90;;;;;;5028037;28;20569;-58
2023/06/03 04:04:51;;;;;;;4.53;1.58;;;10.90;99.90;;;;;;4996959;28;20115;-57
2023/06/03 04:07:20;;;;;;;3.38;1.58;;;10.90;99.90;;;;;;5029937;28;20083;-57
2023/06/03 04:09:47;;;;;;;2.75;1.25;;;10.90;99.90;;;;;;5027518;28;20493;-57
2023/06/03 04:12:36;;;;;;;3.38;1.42;;;10.90;99.90;;;;;;5001265;28;20064;-57
2023/06/03 04:15:03;;;;;;;5.30;1.38;;;11.00;99.90;;;;;;5007207;28;20083;-57
2023/06/03 04:17:30;;;;;;;3.95;1.52;;;11.00;99.90;;;;;;5026190;28;20524;-58
2023/06/03 04:19:57;;;;;;;3.33;1.20;;;10.90;99.90;;;;;;5046749;23;20046;-60
2023/06/03 04:22:24;;;;;;;3.65;1.17;;;10.90;99.90;;;;;;5068971;28;20294;-60
2023/06/03 04:24:59;;;;;;;5.03;1.40;;;11.00;99.90;;;;;;5070704;28;20430;-61
2023/06/03 04:27:25;;;;;;;3.00;1.55;;;11.00;99.90;;;;;;5065589;28;20553;-60
2023/06/03 04:29:51;;;;;;;4.75;1.80;;;11.00;99.90;;;;;;5053229;28;20080;-60
2023/06/03 04:32:16;;;;;;;3.70;1.38;;;11.00;99.90;;;;;;5067571;28;20075;-60
2023/06/03 04:34:51;;;;;;;3.35;1.48;;;11.00;99.90;;;;;;5065685;28;20051;-60
2023/06/03 04:37:17;;;;;;;2.72;1.40;;;11.00;99.90;;;;;;5059820;28;20040;-60
2023/06/03 04:39:43;;;;;;;2.80;1.30;;;10.90;99.90;;;;;;5051876;28;20047;-60
2023/06/03 04:42:10;;;;;;;3.15;1.65;;;11.00;99.90;;;;;;5060886;28;20039;-60
2023/06/03 04:44:40;;;;;;;4.28;1.98;;;11.00;99.90;;;;;;5051971;28;20040;-60
2023/06/03 04:47:10;;;;;;;2.63;1.50;;;11.00;99.90;;;;;;5052265;28;20043;-59
2023/06/03 04:49:39;;;;;;;6.43;1.50;;;11.00;99.90;;;;;;5066465;28;20048;-60
2023/06/03 04:52:10;;;;;;;3.45;1.50;;;11.00;99.90;;;;;;5061903;28;20043;-60
2023/06/03 04:54:37;;;;;;;5.90;1.58;;;11.00;99.90;;;;;;5050669;28;20062;-60
2023/06/03 04:57:03;;;;;;;4.05;1.40;;;11.00;99.90;;;;;;5065916;28;20041;-60
2023/06/03 04:59:29;;;;;;;3.63;1.52;;;11.00;99.90;;;;;;5057147;28;20039;-60
2023/06/03 05:01:55;;;;;;;7.20;1.73;;;11.00;99.90;;;;;;5086451;28;20062;-60
2023/06/03 05:04:22;;;;;;;3.70;1.65;;;11.00;99.90;;;;;;5068849;28;20040;-59
2023/06/03 05:06:48;;;;;;;3.70;1.48;;;11.00;99.90;;;;;;5068611;28;20060;-59
2023/06/03 05:09:15;;;;;;;5.68;2.58;;;11.10;99.90;;;;;;5068751;28;20036;-60
2023/06/03 05:11:43;;;;;;;3.80;1.55;;;11.10;99.90;;;;;;5067939;28;20040;-60
2023/06/03 05:14:09;;;;;;;5.28;1.88;;;11.20;99.90;;;;;;5068658;28;20043;-60
2023/06/03 05:16:36;;;;;;;3.42;1.45;;;11.30;99.90;;;;;;5085166;28;20040;-60
2023/06/03 05:19:04;;;;;;;3.28;1.50;;;11.30;99.90;;;;;;5067449;28;20076;-60
2023/06/03 05:21:30;;;;;;;3.05;1.67;;;11.40;99.90;;;;;;5064700;28;20048;-60
2023/06/03 05:23:57;;;;;;;5.15;1.60;;;11.50;99.90;;;;;;5048576;28;20039;-61
2023/06/03 05:26:26;;;;;;;2.30;1.23;;;11.60;99.90;;;;;;5080060;28;20040;-60
2023/06/03 05:28:52;;;;;;;3.42;1.63;;;11.60;99.90;;;;;;5069056;28;20501;-60
2023/06/03 05:31:18;;;;;;;3.08;1.60;;;11.70;99.90;;;;;;5064047;28;20044;-60
2023/06/03 05:33:44;;;;;;;3.80;1.77;;;11.80;99.90;;;;;;5058933;28;20054;-61
2023/06/03 05:36:10;;;;;;;2.38;1.30;;;11.90;99.90;;;;;;5070178;28;20044;-60
2023/06/03 05:38:36;;;;;;;2.88;1.55;;;11.90;99.90;;;;;;5072230;28;20048;-60
2023/06/03 05:41:03;;;;;;;4.18;1.48;;;12.00;99.90;;;;;;5069730;28;20081;-60
2023/06/03 05:43:30;;;;;;;3.95;1.58;;;12.10;99.90;;;;;;5072008;28;20608;-60
2023/06/03 05:45:56;;;;;;;2.38;1.60;;;12.20;99.90;;;;;;5070384;28;20032;-61
2023/06/03 05:48:21;;;;;;;2.42;1.38;;;12.30;99.90;;;;;;5071734;28;20096;-61
2023/06/03 05:50:52;;;;;;;4.13;1.50;;;12.40;99.90;;;;;;5053993;28;20044;-61
2023/06/03 05:53:24;;;;;;;2.75;1.33;;;12.50;99.90;;;;;;5064985;28;20055;-61
2023/06/03 05:55:50;;;;;;;4.25;1.30;;;12.60;99.90;;;;;;5061266;28;20048;-60
2023/06/03 05:58:20;;;;;;;5.05;1.42;;;12.70;99.90;;;;;;5055325;28;20514;-60
2023/06/03 06:00:47;;;;;;;3.78;1.13;;;12.70;99.90;;;;;;5067439;28;20032;-61
2023/06/03 06:03:13;;;;;;;3.85;1.48;;;12.80;99.90;;;;;;5048327;28;20032;-61
2023/06/03 06:05:39;;;;;;;2.25;1.10;;;12.90;99.90;;;;;;5062046;28;20050;-61
2023/06/03 06:08:08;;;;;;;3.03;1.38;;;13.00;99.90;;;;;;5053566;28;20032;-61
2023/06/03 06:10:34;;;;;;;2.53;1.08;;;13.10;99.90;;;;;;5069248;28;20032;-61
2023/06/03 06:13:00;;;;;;;3.65;1.25;;;13.20;99.90;;;;;;5059525;28;20090;-61
2023/06/03 06:15:32;;;;;;;3.80;1.20;;;13.30;99.90;;;;;;5063271;28;20434;-61
2023/06/03 06:17:57;;;;;;;4.20;1.30;;;13.40;99.90;;;;;;5051240;28;20044;-61
2023/06/03 06:20:23;;;;;;;3.50;1.70;;;13.40;99.90;;;;;;5081277;28;20448;-61
2023/06/03 06:22:49;;;;;;;4.57;1.50;;;13.50;99.80;;;;;;5071090;28;20068;-61
2023/06/03 06:29:03;;;;;;;4.28;1.05;;;13.70;99.60;;;;;;5091707;28;20157;-60
2023/06/03 06:32:13;;;;;;;2.45;1.25;;;13.90;98.80;;;;;;5090463;28;20561;-60
2023/06/03 06:38:19;;;;;;;3.22;1.30;;;14.20;98.20;;;;;;5073096;28;20414;-61
2023/06/03 06:40:49;;;;;;;3.08;1.48;;;14.40;97.90;;;;;;5039695;28;20391;-61
2023/06/03 06:43:21;;;;;;;2.72;1.20;;;14.50;97.90;;;;;;5060248;28;20044;-61
2023/06/03 06:45:47;;;;;;;3.22;1.20;;;14.70;97.70;;;;;;5064793;28;20620;-61
2023/06/03 06:48:13;;;;;;;3.55;1.27;;;14.90;97.60;;;;;;5063321;28;20043;-61
2023/06/03 06:50:52;;;;;;;3.20;1.00;;;15.10;96.90;;;;;;5048993;28;20412;-61
2023/06/03 06:53:19;;;;;;;3.33;1.58;;;15.20;96.90;;;;;;5048551;28;20040;-61
2023/06/03 06:55:51;;;;;;;4.35;1.75;;;15.30;95.80;;;;;;5077342;28;20105;-61
2023/06/03 06:58:17;;;;;;;3.72;1.30;;;15.40;95.60;;;;;;5062167;28;20039;-61
2023/06/03 07:00:43;;;;;;;3.33;1.10;;;15.40;96.10;;;;;;5065604;28;20039;-61
2023/06/03 07:03:11;;;;;;;2.28;1.27;;;15.30;96.10;;;;;;5062584;28;20129;-61
2023/06/03 07:05:37;;;;;;;4.65;1.20;;;15.20;96.40;;;;;;5046469;28;20152;-61
2023/06/03 07:08:03;;;;;;;2.85;1.17;;;15.20;96.40;;;;;;5060764;28;20048;-61
2023/06/03 07:10:28;;;;;;;3.70;0.90;;;15.10;96.50;;;;;;5065971;28;20032;-61
2023/06/03 07:12:55;;;;;;;3.28;1.15;;;15.10;96.40;;;;;;5063419;28;20039;-61
2023/06/03 07:15:22;;;;;;;2.88;1.25;;;15.00;96.50;;;;;;5031962;28;20052;-61
2023/06/03 07:17:52;;;;;;;3.83;0.93;;;14.90;96.40;;;;;;5063813;28;20035;-61
2023/06/03 07:20:25;;;;;;;4.97;1.13;;;14.90;96.60;;;;;;5055663;28;20055;-61
2023/06/03 07:22:51;;;;;;;4.07;1.20;;;14.90;97.00;;;;;;5061903;28;20458;-61
2023/06/03 07:25:39;;;;;;;4.10;1.85;;;14.90;97.20;;;;;;5038362;28;20105;-61
2023/06/03 07:28:09;;;;;;;7.28;1.63;;;14.90;97.20;;;;;;5064375;28;20032;-61
2023/06/03 07:30:36;;;;;;;3.58;1.23;;;14.90;97.60;;;;;;5065159;28;20056;-61
2023/06/03 07:33:04;;;;;;;3.72;1.10;;;15.00;97.70;;;;;;5059237;28;20085;-62
2023/06/03 07:35:30;;;;;;;2.22;1.15;;;15.00;97.80;;;;;;5051618;28;20546;-61
2023/06/03 07:37:56;;;;;;;2.88;1.00;;;15.10;97.90;;;;;;5048353;28;20043;-61
2023/06/03 07:40:42;;;;;;;4.22;1.23;;;15.20;97.80;;;;;;5064246;28;20666;-61
2023/06/03 07:43:09;;;;;;;1.92;0.90;;;15.40;97.80;;;;;;5059609;28;20036;-61
2023/06/03 07:46:09;;;;;;;3.33;1.00;;;15.50;97.10;;;;;;5074942;28;20070;-60
2023/06/03 07:48:38;;;;;;;4.00;0.93;;;15.80;96.70;;;;;;5054282;28;20040;-62
2023/06/03 07:51:08;;;;;;;2.80;1.38;;;15.90;95.40;;;;;;5066259;28;20039;-61
2023/06/03 07:53:39;;;;;;;3.53;1.52;;;16.10;96.00;;;;;;5068360;28;20067;-61
2023/06/03 07:56:12;;;;;;;2.28;0.90;;;16.30;95.80;;;;;;5063728;28;20487;-61
2023/06/03 07:58:38;;;;;;;3.50;1.30;;;16.50;95.90;;;;;;5068068;28;20036;-61
2023/06/03 08:01:04;;;;;;;3.22;1.23;;;16.70;95.20;;;;;;5060961;28;20032;-61
2023/06/03 08:03:31;;;;;;;3.67;1.20;;;16.80;95.20;;;;;;5056638;28;20374;-62
2023/06/03 08:05:57;;;;;;;2.17;1.15;;;17.00;94.90;;;;;;5046760;28;20044;-61
2023/06/03 08:08:33;;;;;;;3.63;1.15;;;17.10;94.70;;;;;;5061177;28;20051;-61
2023/06/03 08:11:01;;;;;;;4.72;1.30;;;17.20;94.00;;;;;;5051525;28;20395;-61
2023/06/03 08:13:26;;;;;;;3.83;1.30;;;17.30;94.20;;;;;;5079307;28;20028;-60
2023/06/03 08:15:52;;;;;;;6.60;1.08;;;17.40;94.00;;;;;;5033093;28;20396;-61
2023/06/03 08:18:45;;;;;;;7.28;1.08;;;17.50;93.50;;;;;;5045857;28;20042;-61
2023/06/03 08:21:12;;;;;;;4.50;1.27;;;17.50;92.90;;;;;;5033657;28;20057;-61
2023/06/03 08:23:37;;;;;;;3.72;1.20;;;17.60;92.10;;;;;;5066262;28;20055;-62
2023/06/03 08:26:04;;;;;;;4.88;1.20;;;17.70;92.80;;;;;;5082143;28;20491;-62
2023/06/03 08:28:30;;;;;;;2.20;0.90;;;17.80;92.70;;;;;;5070180;28;20035;-62
2023/06/03 08:30:55;;;;;;;3.22;1.10;;;18.00;91.40;;;;;;5068853;28;20051;-61
2023/06/03 08:33:21;;;;;;;3.85;1.27;;;18.10;92.00;;;;;;5054577;28;20130;-62
2023/06/03 08:35:50;;;;;;;2.45;1.00;;;18.10;92.00;;;;;;5063252;28;20391;-61
2023/06/03 08:38:17;;;;;;;5.60;1.20;;;18.20;91.20;;;;;;5044926;28;20037;-61
2023/06/03 08:40:48;;;;;;;2.45;1.17;;;18.40;91.10;;;;;;5068030;28;20032;-61
2023/06/03 08:43:15;;;;;;;1.98;0.95;;;18.40;90.10;;;;;;5078791;28;20051;-61
2023/06/03 08:45:55;;;;;;;2.72;1.30;;;18.50;90.20;;;;;;5049976;28;20058;-62
2023/06/03 08:48:39;;;;;;;3.17;1.40;;;18.60;90.00;;;;;;5081291;28;20037;-61
2023/06/03 08:51:05;;;;;;;2.85;1.10;;;18.80;90.40;;;;;;5063548;28;20107;-62
2023/06/03 08:53:48;;;;;;;4.80;1.27;;;18.90;90.20;;;;;;5059720;28;20152;-62
2023/06/03 08:56:17;;;;;;;4.38;1.17;;;19.10;89.20;;;;;;5066972;28;20112;-61
2023/06/03 08:58:52;;;;;;;1.73;0.93;;;19.20;87.70;;;;;;5067948;28;20279;-61
2023/06/03 09:01:21;;;;;;;2.63;0.98;;;19.30;87.40;;;;;;5056542;28;20405;-62
2023/06/03 09:03:48;;;;;;;2.42;1.08;;;19.30;87.00;;;;;;5072770;28;20115;-62
2023/06/03 09:06:14;;;;;;;1.52;0.85;;;19.40;84.70;;;;;;5072942;28;20056;-61
2023/06/03 09:08:41;;;;;;;2.72;0.90;;;19.50;84.30;;;;;;5075533;28;20119;-61
2023/06/03 09:11:09;;;;;;;2.67;0.80;;;19.50;81.60;;;;;;5063310;28;20036;-61
2023/06/03 09:13:35;;;;;;;4.57;1.20;;;19.40;80.70;;;;;;5075125;28;20032;-62
2023/06/03 09:16:02;;;;;;;6.57;1.23;;;19.50;81.30;;;;;;5065240;28;20456;-61
2023/06/03 09:18:34;;;;;;;3.35;1.02;;;19.70;82.80;;;;;;5066288;28;20501;-61
2023/06/03 09:21:00;;;;;;;2.15;0.90;;;19.90;82.30;;;;;;5072176;28;20036;-61
2023/06/03 09:23:27;;;;;;;3.60;0.82;;;19.90;80.80;;;;;;5072716;28;21019;-61
2023/06/03 09:25:53;;;;;;;3.53;1.02;;;19.90;80.10;;;;;;5060822;28;20047;-62
2023/06/03 09:28:20;;;;;;;1.77;0.77;;;20.00;79.60;;;;;;5068696;28;20040;-62
2023/06/03 09:30:46;;;;;;;2.05;1.10;;;20.10;77.70;;;;;;5071849;28;20123;-62
2023/06/03 09:33:12;;;;;;;4.03;0.90;;;20.00;77.10;;;;;;5052721;28;20119;-62
2023/06/03 09:35:38;;;;;;;4.60;0.93;;;20.00;76.40;;;;;;5064162;28;20372;-62
2023/06/03 09:38:07;;;;;;;3.53;1.23;;;20.00;76.60;;;;;;5068075;28;20073;-62
2023/06/03 09:40:34;;;;;;;4.63;1.00;;;20.20;78.30;;;;;;5053879;28;20036;-63
2023/06/03 09:42:59;;;;;;;2.85;1.05;;;20.30;76.90;;;;;;5055666;28;20415;-62
2023/06/03 09:45:30;;;;;;;2.42;0.80;;;20.30;77.20;;;;;;5050709;28;20040;-62
2023/06/03 09:47:57;;;;;;;1.85;0.98;;;20.30;74.20;;;;;;5068961;28;20598;-62
2023/06/03 09:50:24;;;;;;;1.70;0.80;;;20.20;72.40;;;;;;5058832;28;20098;-62
2023/06/03 09:52:50;;;;;;;3.33;1.10;;;20.30;73.90;;;;;;5088550;28;20035;-62
2023/06/03 09:55:17;;;;;;;2.80;1.20;;;20.20;72.90;;;;;;5053635;28;20065;-62
2023/06/03 09:58:08;;;;;;;3.33;1.13;;;20.30;71.00;;;;;;5085158;28;20043;-62
2023/06/03 10:00:48;;;;;;;1.95;1.00;;;20.30;69.80;;;;;;5060727;28;20024;-63
2023/06/03 10:03:14;;;;;;;3.05;0.93;;;20.20;73.20;;;;;;5085929;28;20032;-63
2023/06/03 10:05:41;;;;;;;2.35;1.10;;;20.30;70.50;;;;;;5064874;28;20356;-62
2023/06/03 10:08:07;;;;;;;2.95;0.95;;;20.30;70.20;;;;;;5068617;28;20079;-63
2023/06/03 10:10:34;;;;;;;1.40;0.90;;;20.40;71.60;;;;;;5067364;28;20354;-63
2023/06/03 10:13:19;;;;;;;2.78;1.20;;;20.50;70.50;;;;;;5066803;28;20442;-62
2023/06/03 10:15:46;;;;;;;1.48;1.00;;;20.50;71.40;;;;;;5058966;28;20508;-62
2023/06/03 10:18:11;;;;;;;2.30;0.93;;;20.70;72.00;;;;;;5069405;28;20040;-62
2023/06/03 10:20:39;;;;;;;2.88;0.90;;;20.70;71.20;;;;;;5041836;28;20116;-61
2023/06/03 10:23:07;;;;;;;3.38;1.08;;;20.80;68.60;;;;;;5051277;28;20032;-62
2023/06/03 10:25:44;;;;;;;1.73;0.90;;;20.90;69.30;;;;;;5074427;28;20043;-63
2023/06/03 10:28:11;;;;;;;2.58;1.23;;;21.10;70.30;;;;;;5061456;28;20063;-63
2023/06/03 10:30:37;;;;;;;4.07;1.17;;;21.30;71.90;;;;;;5084562;28;20040;-63
2023/06/03 10:33:04;;;;;;;2.65;1.02;;;21.40;71.00;;;;;;5058439;28;20533;-63
2023/06/03 10:35:34;;;;;;;3.58;1.42;;;21.30;68.40;;;;;;5058006;28;20059;-62
2023/06/03 10:38:03;;;;;;;3.92;0.70;;;21.20;68.40;;;;;;5068499;28;20055;-62
2023/06/03 10:40:30;;;;;;;2.53;0.93;;;21.30;71.60;;;;;;5047676;28;20075;-62
2023/06/03 10:42:56;;;;;;;1.83;0.88;;;21.40;71.60;;;;;;5054540;28;20040;-62
2023/06/03 10:45:26;;;;;;;2.63;0.82;;;21.60;71.20;;;;;;5071441;28;20040;-63
2023/06/03 10:47:59;;;;;;;2.45;1.00;;;21.60;68.90;;;;;;5071797;28;20358;-62
2023/06/03 10:51:08;;;;;;;2.35;0.90;;;21.70;68.40;;;;;;5050841;28;20044;-63
2023/06/03 10:53:49;;;;;;;3.03;1.05;;;21.70;68.30;;;;;;5065156;28;20140;-62
2023/06/03 10:56:26;;;;;;;2.38;0.85;;;21.70;68.30;;;;;;5062594;28;20044;-62
2023/06/03 10:59:04;;;;;;;3.95;1.92;;;21.70;67.30;;;;;;5066066;28;20532;-63
2023/06/03 11:01:55;;;;;;;4.40;1.77;;;21.70;65.90;;;;;;5059103;28;20036;-62
2023/06/03 11:04:21;;;;;;;1.92;1.15;;;21.60;68.60;;;;;;5054848;28;20105;-62
2023/06/03 11:06:47;;;;;;;3.58;1.23;;;21.80;68.00;;;;;;5076258;28;20491;-62
2023/06/03 11:09:16;;;;;;;2.22;1.38;;;22.00;66.80;;;;;;5046034;28;20040;-62
2023/06/03 11:11:42;;;;;;;2.22;0.70;;;21.90;64.40;;;;;;5066193;28;20469;-62
2023/06/03 11:14:09;;;;;;;1.80;1.00;;;21.90;64.90;;;;;;5060752;28;20162;-62
2023/06/03 11:16:58;;;;;;;3.50;1.30;;;21.80;66.50;;;;;;5065382;28;20495;-63
2023/06/03 11:19:31;;;;;;;4.68;1.80;;;22.10;66.10;;;;;;5033507;28;20056;-63
2023/06/03 11:22:07;;;;;;;3.03;1.23;;;22.20;67.70;;;;;;5084334;28;20028;-63
2023/06/03 11:24:39;;;;;;;3.22;1.20;;;22.20;66.30;;;;;;5054477;28;20032;-62
2023/06/03 11:27:13;;;;;;;2.65;1.20;;;22.20;66.20;;;;;;5067631;28;20036;-62
2023/06/03 11:29:49;;;;;;;1.85;1.10;;;22.30;67.00;;;;;;5054022;28;20083;-62
2023/06/03 11:32:32;;;;;;;2.38;1.23;;;22.30;64.30;;;;;;5063764;28;20050;-63
2023/06/03 11:35:03;;;;;;;1.70;1.00;;;22.60;65.90;;;;;;5062256;28;20039;-62
2023/06/03 11:37:41;;;;;;;2.28;1.58;;;22.60;64.90;;;;;;5047007;28;20032;-62
2023/06/03 11:40:18;;;;;;;3.90;1.30;;;22.60;64.40;;;;;;5064994;28;20474;-62
2023/06/03 11:42:47;;;;;;;2.88;1.13;;;22.80;65.30;;;;;;5062163;28;20028;-61
2023/06/03 11:45:24;;;;;;;3.95;1.10;;;22.60;61.50;;;;;;5062255;28;20391;-61
2023/06/03 11:47:56;;;;;;;2.33;1.15;;;22.50;63.70;;;;;;5057149;28;20406;-61
2023/06/03 11:50:26;;;;;;;4.70;1.23;;;22.70;64.80;;;;;;5060228;28;20052;-60
2023/06/03 11:52:55;;;;;;;6.25;1.40;;;22.90;64.40;;;;;;5068918;28;20588;-61
2023/06/03 11:55:32;;;;;;;4.60;1.10;;;23.10;65.10;;;;;;5057510;28;20040;-61
2023/06/03 11:58:22;;;;;;;3.67;0.90;;;23.00;60.50;;;;;;5043233;28;20040;-61
2023/06/03 12:00:48;;;;;;;5.05;1.10;;;23.10;63.00;;;;;;5054361;28;20062;-61
2023/06/03 12:03:14;;;;;;;2.17;0.90;;;23.00;61.90;;;;;;5063820;28;20482;-61
2023/06/03 12:05:53;;;;;;;4.28;1.25;;;22.90;61.40;;;;;;5064354;28;20156;-61
2023/06/03 12:08:22;;;;;;;4.80;1.05;;;22.80;61.40;;;;;;5058930;28;20061;-62
2023/06/03 12:10:48;;;;;;;5.43;1.50;;;22.90;61.90;;;;;;5078606;28;20028;-61
2023/06/03 12:13:14;;;;;;;2.67;1.33;;;22.90;60.90;;;;;;5082754;28;20039;-61
2023/06/03 12:15:48;;;;;;;3.17;1.20;;;22.90;60.10;;;;;;5066337;28;20522;-61
2023/06/03 12:18:13;;;;;;;;;;;23.10;60.80;;;;;;5065948;28;20465;-61
2023/06/03 12:20:39;;;;;;;12.38;2.53;;;22.90;58.60;;;;;;5062290;28;19954;-60
2023/06/03 12:23:06;;;;;;;2.15;1.23;;;22.90;60.80;;;;;;5052601;28;20567;-61
2023/06/03 12:25:35;;;;;;;2.50;1.30;;;23.00;61.70;;;;;;5059709;28;20032;-61
2023/06/03 12:31:59;;;;;;;5.10;1.63;;;22.90;60.00;;;;;;5075519;28;20575;-61
2023/06/03 12:34:33;;;;;;;2.13;1.30;;;23.00;61.40;;;;;;5063985;28;20086;-61
2023/06/03 12:37:00;;;;;;;10.27;1.83;;;22.80;60.10;;;;;;5065594;28;20062;-61
2023/06/03 12:39:47;;;;;;;2.50;1.30;;;22.80;61.00;;;;;;5059373;28;20534;-62
2023/06/03 12:42:15;;;;;;;4.00;1.30;;;22.70;61.10;;;;;;5081499;28;20040;-62
2023/06/03 12:44:50;;;;;;;2.83;1.35;;;22.70;61.50;;;;;;5055900;28;20486;-59
2023/06/03 12:47:17;;;;;;;5.10;1.40;;;23.00;62.70;;;;;;5059074;28;20048;-61
2023/06/03 12:49:45;;;;;;;3.17;1.10;;;23.20;62.50;;;;;;5062579;28;20503;-61
2023/06/03 12:52:13;;;;;;;3.60;1.08;;;23.10;61.20;;;;;;5077771;28;22046;-60
2023/06/03 12:54:40;;;;;;;2.88;1.13;;;23.10;61.90;;;;;;5060887;28;20071;-60
2023/06/03 12:57:07;;;;;;;2.17;1.00;;;23.20;61.40;;;;;;5048033;28;20070;-60
2023/06/03 12:59:33;;;;;;;3.22;1.50;;;23.30;60.40;;;;;;5039894;28;20033;-61
2023/06/03 13:01:59;;;;;;;2.40;1.13;;;23.40;62.00;;;;;;5060808;28;20048;-61
2023/06/03 13:04:25;;;;;;;2.42;1.30;;;23.60;60.30;;;;;;5065185;28;20039;-61
2023/06/03 13:06:51;;;;;;;5.53;2.20;;;23.70;60.80;;;;;;5062876;28;20044;-60
2023/06/03 13:09:16;;;;;;;2.92;1.30;;;23.60;60.30;;;;;;5044893;28;20131;-61
2023/06/03 13:11:42;;;;;;;2.95;1.40;;;23.50;59.70;;;;;;5062152;28;20044;-61
2023/06/03 13:14:09;;;;;;;2.70;1.25;;;23.70;60.00;;;;;;5080034;28;20044;-61
2023/06/03 13:16:35;;;;;;;3.60;1.40;;;23.70;59.70;;;;;;5083121;28;20474;-61
2023/06/03 13:19:03;;;;;;;2.17;1.05;;;23.70;59.40;;;;;;5044592;28;20039;-60